METAR Analyzer

一覧表示

Hello, Guest. (Login)

RJCC/CTS  -  札幌/新千歳

観測日時
2024-03-03 02:00 (UTC) (40分前)
気温
-1
露点
-11
湿数
10
相対湿度
46.5%
QNH
1010.2hPa
推定現地気圧
1007.2hPa
推定海面気圧
1010.4hPa
体感温度
-11.8
(無風時)
5
HI
-3.8
気温前日比
+3
体感温度前日比
+8.1
HI前日比
+3.3
水平視程
>10000m
鉛直視程
データなし
雲底高度
No dense clouds
V/I
VMC (VFR)
RVR
No RVR data
卓越風
9kt from 250° (190° ~ 290°)
ガスト
No gust
降水
報告なし
その他の天気
報告なし
少しの(1/8) 積雲 @ 2000ft AGL / 散在する(3/8) 積雲 @ 5000ft AGL

RJCC 030200Z 25009KT 190V290 9999 FEW020 SCT050 M01/M11 Q1010 RMK 1CU020 3CU050 A2983

[PR]

RJTT/HND  -  東京/羽田

観測日時
2024-03-03 02:00 (UTC) (40分前)
気温
8
露点
-4
湿数
12
相対湿度
42.4%
QNH
1015.2hPa
推定現地気圧
1014.5hPa
推定海面気圧
1015.2hPa
体感温度
1.1
(無風時)
11.3
HI
6
気温前日比
±0
体感温度前日比
+4.3
HI前日比
+0.3
水平視程
>10000m
鉛直視程
データなし
雲底高度
No dense clouds
V/I
VMC (VFR)
RVR
No RVR data
卓越風
5kt from 110° (70° ~ 140°)
ガスト
No gust
降水
報告なし
その他の天気
報告なし
少しの(1/8) 積雲 @ 3000ft AGL

RJTT 030200Z 11005KT 070V140 9999 FEW030 08/M04 Q1015 BECMG TL0300 18010KT RMK 1CU030 A2998

[PR]

RJAA/NRT  -  東京/成田

観測日時
2024-03-03 02:00 (UTC) (40分前)
気温
10
露点
-6
湿数
16
相対湿度
31.8%
QNH
1014.9hPa
推定現地気圧
1013.6hPa
推定海面気圧
1014.9hPa
体感温度
3.4
(無風時)
12.6
HI
7.9
気温前日比
+2
体感温度前日比
+5.8
HI前日比
+2.3
水平視程
>10000m
鉛直視程
データなし
雲底高度
No dense clouds
V/I
VMC (VFR)
RVR
No RVR data
卓越風
5kt from VRB
ガスト
No gust
降水
報告なし
その他の天気
報告なし
少しの(1/8) 積雲 @ 3000ft AGL

RJAA 030200Z VRB05KT 9999 FEW030 10/M06 Q1014 BECMG 22006KT RMK 1CU030 A2997

[PR]

RJGG/NGO  -  名古屋/中部

観測日時
2024-03-03 02:00 (UTC) (40分前)
気温
7
露点
-5
湿数
12
相対湿度
42.1%
QNH
1019.3hPa
推定現地気圧
1018.8hPa
推定海面気圧
1019.3hPa
体感温度
-2.9
(無風時)
10.6
HI
4.9
気温前日比
+1
体感温度前日比
+5.9
HI前日比
+0.8
水平視程
>10000m
鉛直視程
データなし
雲底高度
No dense clouds
V/I
VMC (VFR)
RVR
No RVR data
卓越風
10kt from 280°
ガスト
No gust
降水
報告なし
その他の天気
報告なし
報告なし

RJGG 030200Z 28010KT CAVOK 07/M05 Q1019 NOSIG RMK A3010

[PR]

RJOO/ITM  -  大阪/伊丹

観測日時
2024-03-03 02:00 (UTC) (40分前)
気温
8
露点
-2
湿数
10
相対湿度
49.2%
QNH
1020.3hPa
推定現地気圧
1018.9hPa
推定海面気圧
1020.4hPa
体感温度
-1.7
(無風時)
11.2
HI
6.1
気温前日比
+3
体感温度前日比
+5.1
HI前日比
+3.4
水平視程
>10000m
鉛直視程
データなし
雲底高度
No dense clouds
V/I
VMC (VFR)
RVR
No RVR data
卓越風
9kt from 210° (170° ~ 260°)
ガスト
No gust
降水
報告なし
その他の天気
報告なし
少しの(1/8) 積雲 @ 2500ft AGL

RJOO 030200Z 21009KT 170V260 9999 FEW025 08/M02 Q1020 RMK 1CU025 A3013

[PR]

RJBB/KIX  -  大阪/関西

観測日時
2024-03-03 02:00 (UTC) (40分前)
気温
8
露点
-3
湿数
11
相対湿度
45.7%
QNH
1021hPa
推定現地気圧
1020.4hPa
推定海面気圧
1021.0hPa
体感温度
-1.5
(無風時)
11.3
HI
6
気温前日比
+4
体感温度前日比
+6
HI前日比
+4
水平視程
>10000m
鉛直視程
データなし
雲底高度
No dense clouds
V/I
VMC (VFR)
RVR
No RVR data
卓越風
9kt from 240° (200° ~ 260°)
ガスト
No gust
降水
報告なし
その他の天気
報告なし
少しの雲 @ 2000ft AGL

RJBB 030200Z 24009KT 200V260 9999 FEW020 08/M03 Q1021 NOSIG

[PR]

RJFF/FUK  -  福岡

観測日時
2024-03-03 02:00 (UTC) (40分前)
気温
5
露点
2
湿数
3
相対湿度
80.9%
QNH
1022hPa
推定現地気圧
1020.9hPa
推定海面気圧
1022.0hPa
体感温度
-6.6
(無風時)
8.5
HI
3.7
気温前日比
+1
体感温度前日比
+0.8
HI前日比
+1.9
水平視程
>10000m
鉛直視程
データなし
雲底高度
6000ft AGL
V/I
VMC (VFR)
RVR
No RVR data
卓越風
8kt from 160° (140° ~ 200°)
ガスト
No gust
降水
弱いしゅう雨性の雨
その他の天気
報告なし
少しの雲 @ 2000ft AGL / 散在する雲 @ 3500ft AGL / 隙間のある雲 @ 6000ft AGL

RJFF 030200Z 16008KT 140V200 9999 -SHRA FEW020 SCT035 BKN060 05/02 Q1022 BECMG 23011KT

[PR]

ROAH/OKA  -  那覇

観測日時
2024-03-03 02:00 (UTC) (40分前)
気温
17
露点
10
湿数
7
相対湿度
63.4%
QNH
1021.0hPa
推定現地気圧
1020.6hPa
推定海面気圧
1021.0hPa
体感温度
9
(無風時)
17.9
HI
16.4
気温前日比
+1
体感温度前日比
+2.5
HI前日比
+1
水平視程
>10000m
鉛直視程
データなし
雲底高度
No dense clouds
V/I
VMC (VFR)
RVR
No RVR data
卓越風
8kt from 60°
ガスト
No gust
降水
報告なし
その他の天気
報告なし
少しの(2/8) 積雲 @ 2000ft AGL / 散在する(4/8) 層積雲 @ 4200ft AGL

ROAH 030200Z 06008KT 9999 FEW020 SCT042 17/10 Q1021 RMK 2CU020 4SC042 A3015

[PR]
22.8msec